Terminal Aerodrome Forecast
Issued by NWS Boise, ID

Home | Current Version | Previous Version | Text Only | Print | Product List | Glossary On
Versions: 1 2 3 4 5 6 7 8 9 10 11 12 13 14
000
FTUS45 KBOI 261140
TAFBNO
TAF
KBNO 261140Z 2612/2712 VRB05KT P6SM SCT150
     FM261900 21012G20KT 6SM -SHRA BR OVC025
     FM262300 24011KT P6SM -SHRA OVC035
     FM270200 25007KT 6SM -SHRA BR OVC020=

USA.gov is the U.S. government's official web portal to all federal, state and local government web resources and services.